Terminal Aerodrome Forecast
Issued by NWS

Home | Current Version | Previous Version | Text Only | Print | Product List | Glossary On
Versions: 1 2 3 4 5 6 7 8 9 10 11 12 13
000
FTUS42 TJSJ 241700
TAFJPS
TAF
TJPS 241738Z 2418/2518 14012KT P6SM VCSH SCT022 BKN050
     FM242300 07003KT P6SM FEW030 SCT070
     FM250600 00000KT P6SM VCSH FEW022 SCT060
     FM251400 14011KT P6SM FEW030
      AMD NOT SKED TIL 250300=

USA.gov is the U.S. government's official web portal to all federal, state and local government web resources and services.